Time,TemperatureF,DewpointF,PressureIn,WindDirection,WindDirectionDegrees,WindSpeedMPH,WindSpeedGustMPH,Humidity,HourlyPrecipIn,Conditions,Clouds,dailyrainin,SoftwareType,DateUTC
2013-04-20 00:03:00,61.0,60.0,29.71,West,269,0.0,8.0,98,0.00,,,0.00,,2013-04-20 04:03:00,
2013-04-20 00:12:00,61.0,60.0,29.71,West,269,0.0,8.0,98,0.00,,,0.00,,2013-04-20 04:12:00,
2013-04-20 00:23:00,61.0,61.0,29.70,SSW,211,0.0,6.0,99,0.00,,,0.00,,2013-04-20 04:23:00,
2013-04-20 00:33:00,61.0,61.0,29.71,WNW,297,2.0,7.0,99,0.00,,,0.00,,2013-04-20 04:33:00,
2013-04-20 00:42:00,61.0,61.0,29.71,WNW,297,2.0,7.0,99,0.00,,,0.00,,2013-04-20 04:42:00,
2013-04-20 00:52:00,61.0,61.0,29.71,NW,309,2.0,7.0,99,0.01,,,0.01,,2013-04-20 04:52:00,
2013-04-20 01:02:00,60.0,59.0,29.71,WNW,299,2.0,7.0,98,0.02,,,0.02,,2013-04-20 05:02:00,
2013-04-20 01:12:00,60.0,59.0,29.71,WNW,299,2.0,7.0,98,0.02,,,0.02,,2013-04-20 05:12:00,
2013-04-20 01:22:00,60.0,59.0,29.71,West,264,0.0,6.0,98,0.05,,,0.05,,2013-04-20 05:22:00,
2013-04-20 01:32:00,60.0,59.0,29.71,North,355,2.0,7.0,98,0.05,,,0.05,,2013-04-20 05:32:00,
2013-04-20 01:43:00,60.0,59.0,29.71,North,355,2.0,7.0,98,0.05,,,0.05,,2013-04-20 05:43:00,
2013-04-20 01:52:00,59.0,58.0,29.70,North,355,1.0,9.0,98,0.05,,,0.06,,2013-04-20 05:52:00,
2013-04-20 02:02:00,59.0,58.0,29.70,NW,313,1.0,5.0,98,0.04,,,0.07,,2013-04-20 06:02:00,
2013-04-20 02:12:00,59.0,58.0,29.70,NW,313,1.0,5.0,98,0.04,,,0.07,,2013-04-20 06:12:00,
2013-04-20 02:21:00,59.0,58.0,29.69,North,360,0.0,4.0,98,0.03,,,0.08,,2013-04-20 06:21:00,
2013-04-20 02:32:00,59.0,58.0,29.68,ENE,61,0.0,6.0,98,0.04,,,0.09,,2013-04-20 06:32:00,
2013-04-20 02:42:00,59.0,58.0,29.68,ENE,61,0.0,6.0,98,0.04,,,0.09,,2013-04-20 06:42:00,
2013-04-20 02:52:00,59.0,58.0,29.67,West,273,0.0,3.0,98,0.03,,,0.09,,2013-04-20 06:52:00,
2013-04-20 03:02:00,59.0,58.0,29.67,SSW,211,1.0,5.0,98,0.02,,,0.09,,2013-04-20 07:02:00,
2013-04-20 03:11:00,59.0,58.0,29.67,SSW,211,1.0,5.0,98,0.02,,,0.09,,2013-04-20 07:11:00,
2013-04-20 03:22:00,59.0,58.0,29.67,WNW,296,0.0,4.0,98,0.01,,,0.09,,2013-04-20 07:22:00,
2013-04-20 03:32:00,59.0,58.0,29.66,North,5,1.0,4.0,98,0.04,,,0.13,,2013-04-20 07:32:00,
2013-04-20 03:42:00,55.0,54.0,29.69,NW,319,2.0,6.0,97,0.07,,,0.16,,2013-04-20 07:42:00,
2013-04-20 03:52:00,55.0,54.0,29.69,NW,319,2.0,6.0,97,0.07,,,0.16,,2013-04-20 07:52:00,
2013-04-20 04:02:00,52.0,51.0,29.68,NE,38,1.0,5.0,96,0.11,,,0.20,,2013-04-20 08:02:00,
2013-04-20 04:11:00,52.0,51.0,29.68,NE,38,1.0,5.0,96,0.11,,,0.20,,2013-04-20 08:11:00,
2013-04-20 04:21:00,51.0,50.0,29.68,North,5,1.0,7.0,96,0.13,,,0.22,,2013-04-20 08:21:00,
2013-04-20 04:32:00,50.0,49.0,29.70,North,5,1.0,6.0,96,0.09,,,0.22,,2013-04-20 08:32:00,
2013-04-20 04:42:00,50.0,49.0,29.70,North,5,1.0,6.0,96,0.09,,,0.22,,2013-04-20 08:42:00,
2013-04-20 04:52:00,49.0,48.0,29.71,NW,323,0.0,4.0,97,0.08,,,0.24,,2013-04-20 08:52:00,
2013-04-20 05:02:00,49.0,48.0,29.72,NNW,340,0.0,4.0,97,0.09,,,0.28,,2013-04-20 09:02:00,
2013-04-20 05:12:00,49.0,48.0,29.72,NNW,340,0.0,4.0,97,0.09,,,0.28,,2013-04-20 09:12:00,
2013-04-20 05:21:00,48.0,47.0,29.71,NNW,333,0.0,3.0,97,0.10,,,0.32,,2013-04-20 09:21:00,
2013-04-20 05:33:00,48.0,47.0,29.70,ENE,78,1.0,5.0,97,0.11,,,0.33,,2013-04-20 09:33:00,
2013-04-20 05:43:00,48.0,47.0,29.70,ENE,78,1.0,5.0,97,0.11,,,0.33,,2013-04-20 09:43:00,
2013-04-20 05:53:00,47.0,46.0,29.75,NNW,346,2.0,5.0,97,0.11,,,0.35,,2013-04-20 09:53:00,
2013-04-20 06:03:00,45.0,44.0,29.75,NW,325,2.0,5.0,97,0.06,,,0.35,,2013-04-20 10:03:00,
2013-04-20 06:13:00,45.0,44.0,29.75,NW,325,2.0,5.0,97,0.06,,,0.35,,2013-04-20 10:13:00,
2013-04-20 06:23:00,45.0,44.0,29.77,NW,317,1.0,5.0,97,0.04,,,0.36,,2013-04-20 10:23:00,
2013-04-20 06:33:00,44.0,43.0,29.77,NW,306,0.0,3.0,97,0.03,,,0.36,,2013-04-20 10:33:00,
2013-04-20 06:42:00,44.0,43.0,29.77,NW,306,0.0,3.0,97,0.03,,,0.36,,2013-04-20 10:42:00,
2013-04-20 06:52:00,44.0,43.0,29.79,NW,306,0.0,3.0,97,0.02,,,0.37,,2013-04-20 10:52:00,
2013-04-20 07:02:00,44.0,43.0,29.81,NNW,340,0.0,3.0,98,0.03,,,0.38,,2013-04-20 11:02:00,
2013-04-20 07:12:00,44.0,43.0,29.81,NNW,340,0.0,3.0,98,0.03,,,0.38,,2013-04-20 11:12:00,
2013-04-20 07:23:00,43.0,42.0,29.80,North,5,0.0,4.0,97,0.02,,,0.38,,2013-04-20 11:23:00,
2013-04-20 07:32:00,43.0,42.0,29.82,North,355,0.0,4.0,97,0.02,,,0.38,,2013-04-20 11:32:00,
2013-04-20 07:42:00,43.0,42.0,29.82,North,355,0.0,4.0,97,0.02,,,0.38,,2013-04-20 11:42:00,
2013-04-20 07:52:00,42.0,41.0,29.84,NNW,333,1.0,3.0,97,0.02,,,0.39,,2013-04-20 11:52:00,
2013-04-20 08:02:00,42.0,41.0,29.85,NNE,30,0.0,4.0,97,0.01,,,0.39,,2013-04-20 12:02:00,
2013-04-20 08:11:00,42.0,41.0,29.85,NNE,30,0.0,4.0,97,0.01,,,0.39,,2013-04-20 12:11:00,
2013-04-20 08:22:00,42.0,41.0,29.87,ENE,68,1.0,6.0,97,0.01,,,0.39,,2013-04-20 12:22:00,
2013-04-20 08:32:00,42.0,41.0,29.85,North,360,0.0,4.0,96,0.00,,,0.39,,2013-04-20 12:32:00,
2013-04-20 08:42:00,42.0,41.0,29.85,North,360,0.0,4.0,96,0.00,,,0.39,,2013-04-20 12:42:00,
2013-04-20 08:52:00,42.0,41.0,29.85,NW,313,0.0,4.0,95,0.00,,,0.39,,2013-04-20 12:52:00,
2013-04-20 09:02:00,42.0,40.0,29.85,NNW,346,0.0,3.0,94,0.00,,,0.39,,2013-04-20 13:02:00,
2013-04-20 09:11:00,42.0,40.0,29.85,NNW,346,0.0,3.0,94,0.00,,,0.39,,2013-04-20 13:11:00,
2013-04-20 09:21:00,42.0,40.0,29.85,NE,40,1.0,3.0,92,0.00,,,0.39,,2013-04-20 13:21:00,
2013-04-20 09:32:00,42.0,40.0,29.85,WNW,293,1.0,4.0,92,0.00,,,0.39,,2013-04-20 13:32:00,
2013-04-20 09:42:00,42.0,40.0,29.85,WNW,293,1.0,4.0,92,0.00,,,0.39,,2013-04-20 13:42:00,
2013-04-20 09:52:00,42.0,39.0,29.85,NNW,336,1.0,5.0,88,0.00,,,0.39,,2013-04-20 13:52:00,
2013-04-20 10:02:00,43.0,40.0,29.86,West,275,2.0,6.0,88,0.00,,,0.39,,2013-04-20 14:02:00,
2013-04-20 10:11:00,43.0,40.0,29.86,West,275,2.0,6.0,88,0.00,,,0.39,,2013-04-20 14:11:00,
2013-04-20 10:21:00,45.0,41.0,29.87,NNE,24,2.0,4.0,86,0.00,,,0.39,,2013-04-20 14:21:00,
2013-04-20 10:32:00,46.0,40.0,29.88,NW,325,3.0,7.0,80,0.00,,,0.39,,2013-04-20 14:32:00,
2013-04-20 10:42:00,46.0,40.0,29.88,NW,325,3.0,7.0,80,0.00,,,0.39,,2013-04-20 14:42:00,
2013-04-20 10:51:00,47.0,41.0,29.90,NE,35,2.0,6.0,80,0.00,,,0.39,,2013-04-20 14:51:00,
2013-04-20 11:02:00,48.0,39.0,29.91,North,360,2.0,8.0,72,0.00,,,0.39,,2013-04-20 15:02:00,
2013-04-20 11:12:00,48.0,39.0,29.91,North,360,2.0,8.0,72,0.00,,,0.39,,2013-04-20 15:12:00,
2013-04-20 11:21:00,48.0,39.0,29.91,NNW,345,4.0,7.0,72,0.00,,,0.39,,2013-04-20 15:21:00,
2013-04-20 11:33:00,48.0,40.0,29.92,NNE,15,3.0,7.0,73,0.00,,,0.39,,2013-04-20 15:33:00,
2013-04-20 11:43:00,48.0,40.0,29.92,NNE,15,3.0,7.0,73,0.00,,,0.39,,2013-04-20 15:43:00,
2013-04-20 11:53:00,48.0,39.0,29.92,NNE,23,2.0,7.0,72,0.00,,,0.39,,2013-04-20 15:53:00,
2013-04-20 12:03:00,49.0,40.0,29.93,NW,313,4.0,8.0,70,0.00,,,0.39,,2013-04-20 16:03:00,
2013-04-20 12:12:00,49.0,39.0,29.93,NNW,338,3.0,6.0,68,0.00,,,0.39,,2013-04-20 16:12:00,
2013-04-20 12:23:00,49.0,39.0,29.93,NNW,338,3.0,6.0,68,0.00,,,0.39,,2013-04-20 16:23:00,
2013-04-20 12:33:00,50.0,39.0,29.92,North,5,3.0,6.0,66,0.00,,,0.39,,2013-04-20 16:33:00,
2013-04-20 12:42:00,50.0,39.0,29.92,North,5,3.0,6.0,66,0.00,,,0.39,,2013-04-20 16:42:00,
2013-04-20 12:52:00,51.0,38.0,29.92,NNW,339,4.0,11.0,61,0.00,,,0.39,,2013-04-20 16:52:00,
2013-04-20 13:02:00,51.0,35.0,29.92,North,350,4.0,8.0,54,0.00,,,0.39,,2013-04-20 17:02:00,
2013-04-20 13:12:00,51.0,35.0,29.92,North,350,4.0,8.0,54,0.00,,,0.39,,2013-04-20 17:12:00,
2013-04-20 13:23:00,51.0,34.0,29.92,WNW,296,4.0,8.0,53,0.00,,,0.39,,2013-04-20 17:23:00,
2013-04-20 13:33:00,52.0,37.0,29.92,NNW,340,3.0,7.0,57,0.00,,,0.39,,2013-04-20 17:33:00,
2013-04-20 13:42:00,52.0,37.0,29.92,NNW,340,3.0,7.0,57,0.00,,,0.39,,2013-04-20 17:42:00,
2013-04-20 13:52:00,52.0,37.0,29.92,North,355,1.0,8.0,56,0.00,,,0.39,,2013-04-20 17:52:00,
2013-04-20 14:02:00,52.0,36.0,29.93,NNW,345,2.0,6.0,54,0.00,,,0.39,,2013-04-20 18:02:00,
2013-04-20 14:13:00,52.0,35.0,29.93,WNW,300,4.0,11.0,52,0.00,,,0.39,,2013-04-20 18:13:00,
2013-04-20 14:22:00,52.0,35.0,29.93,WNW,300,4.0,11.0,52,0.00,,,0.39,,2013-04-20 18:22:00,
2013-04-20 14:32:00,52.0,35.0,29.93,NW,304,3.0,7.0,52,0.00,,,0.39,,2013-04-20 18:32:00,
2013-04-20 14:42:00,52.0,35.0,29.93,NW,304,3.0,7.0,52,0.00,,,0.39,,2013-04-20 18:42:00,
2013-04-20 14:52:00,52.0,33.0,29.94,NNW,344,2.0,5.0,49,0.00,,,0.39,,2013-04-20 18:52:00,
2013-04-20 15:02:00,54.0,34.0,29.94,NNE,24,2.0,6.0,46,0.00,,,0.39,,2013-04-20 19:02:00,
2013-04-20 15:11:00,54.0,33.0,29.94,North,350,3.0,7.0,44,0.00,,,0.39,,2013-04-20 19:11:00,
2013-04-20 15:21:00,54.0,33.0,29.94,North,350,3.0,7.0,44,0.00,,,0.39,,2013-04-20 19:21:00,
2013-04-20 15:32:00,53.0,32.0,29.95,WNW,302,5.0,9.0,44,0.00,,,0.39,,2013-04-20 19:32:00,
2013-04-20 15:42:00,53.0,32.0,29.95,ENE,63,2.0,7.0,45,0.00,,,0.39,,2013-04-20 19:42:00,
2013-04-20 15:52:00,53.0,32.0,29.95,ENE,63,2.0,7.0,45,0.00,,,0.39,,2013-04-20 19:52:00,
2013-04-20 16:02:00,53.0,33.0,29.96,North,355,1.0,5.0,47,0.00,,,0.39,,2013-04-20 20:02:00,
2013-04-20 16:12:00,53.0,32.0,29.96,NNW,330,2.0,8.0,44,0.00,,,0.39,,2013-04-20 20:12:00,
2013-04-20 16:22:00,53.0,32.0,29.96,NNW,330,2.0,8.0,44,0.00,,,0.39,,2013-04-20 20:22:00,
2013-04-20 16:32:00,54.0,33.0,29.97,NW,306,2.0,6.0,45,0.00,,,0.39,,2013-04-20 20:32:00,
2013-04-20 16:42:00,54.0,33.0,29.97,NW,306,2.0,6.0,45,0.00,,,0.39,,2013-04-20 20:42:00,
2013-04-20 16:52:00,53.0,31.0,29.98,North,350,1.0,4.0,43,0.00,,,0.39,,2013-04-20 20:52:00,
2013-04-20 17:02:00,54.0,33.0,29.98,NNW,334,1.0,4.0,44,0.00,,,0.39,,2013-04-20 21:02:00,
2013-04-20 17:12:00,54.0,33.0,29.98,NNW,334,1.0,4.0,44,0.00,,,0.39,,2013-04-20 21:12:00,
2013-04-20 17:22:00,55.0,32.0,29.98,NE,34,2.0,5.0,41,0.00,,,0.39,,2013-04-20 21:22:00,
2013-04-20 17:33:00,54.0,30.0,29.99,NNW,339,4.0,7.0,40,0.00,,,0.39,,2013-04-20 21:33:00,
2013-04-20 17:43:00,54.0,30.0,29.99,NNW,339,4.0,7.0,40,0.00,,,0.39,,2013-04-20 21:43:00,
2013-04-20 17:52:00,54.0,31.0,30.00,West,279,2.0,6.0,41,0.00,,,0.39,,2013-04-20 21:52:00,
2013-04-20 18:03:00,55.0,32.0,30.01,NNE,19,3.0,6.0,41,0.00,,,0.39,,2013-04-20 22:03:00,
2013-04-20 18:12:00,55.0,32.0,30.01,NNE,19,3.0,6.0,41,0.00,,,0.39,,2013-04-20 22:12:00,
2013-04-20 18:23:00,54.0,32.0,30.01,WNW,298,1.0,5.0,43,0.00,,,0.39,,2013-04-20 22:23:00,
2013-04-20 18:32:00,53.0,31.0,30.02,NNE,24,1.0,7.0,43,0.00,,,0.39,,2013-04-20 22:32:00,
2013-04-20 18:42:00,53.0,31.0,30.02,NNE,24,1.0,7.0,43,0.00,,,0.39,,2013-04-20 22:42:00,
2013-04-20 18:52:00,53.0,31.0,30.03,North,5,1.0,7.0,43,0.00,,,0.39,,2013-04-20 22:52:00,
2013-04-20 19:02:00,53.0,30.0,30.04,NNW,330,1.0,4.0,41,0.00,,,0.39,,2013-04-20 23:02:00,
2013-04-20 19:12:00,53.0,30.0,30.04,NNW,330,1.0,4.0,41,0.00,,,0.39,,2013-04-20 23:12:00,
2013-04-20 19:22:00,53.0,31.0,30.05,North,355,2.0,4.0,43,0.00,,,0.39,,2013-04-20 23:22:00,
2013-04-20 19:32:00,52.0,29.0,30.06,NNE,18,2.0,7.0,41,0.00,,,0.39,,2013-04-20 23:32:00,
2013-04-20 19:42:00,52.0,29.0,30.06,NNE,18,2.0,7.0,41,0.00,,,0.39,,2013-04-20 23:42:00,
2013-04-20 19:52:00,51.0,28.0,30.07,North,351,1.0,4.0,41,0.00,,,0.39,,2013-04-20 23:52:00,
2013-04-20 20:01:00,51.0,30.0,30.09,ENE,68,1.0,4.0,44,0.00,,,0.39,,2013-04-21 00:01:00,
2013-04-20 20:12:00,51.0,30.0,30.09,ENE,68,1.0,4.0,44,0.00,,,0.39,,2013-04-21 00:12:00,
2013-04-20 20:22:00,50.0,29.0,30.10,NNE,13,1.0,4.0,45,0.00,,,0.39,,2013-04-21 00:22:00,
2013-04-20 20:32:00,49.0,30.0,30.11,NNE,13,0.0,2.0,47,0.00,,,0.39,,2013-04-21 00:32:00,
2013-04-20 20:42:00,49.0,30.0,30.11,NNE,13,0.0,2.0,47,0.00,,,0.39,,2013-04-21 00:42:00,
2013-04-20 20:52:00,48.0,30.0,30.13,North,5,0.0,2.0,49,0.00,,,0.39,,2013-04-21 00:52:00,
2013-04-20 21:01:00,48.0,30.0,30.14,North,5,0.0,1.0,49,0.00,,,0.39,,2013-04-21 01:01:00,
2013-04-20 21:12:00,48.0,30.0,30.14,North,5,0.0,1.0,49,0.00,,,0.39,,2013-04-21 01:12:00,
2013-04-20 21:21:00,47.0,29.0,30.16,North,5,1.0,4.0,50,0.00,,,0.39,,2013-04-21 01:21:00,
2013-04-20 21:32:00,47.0,29.0,30.17,NNW,333,2.0,4.0,49,0.00,,,0.39,,2013-04-21 01:32:00,
2013-04-20 21:42:00,47.0,29.0,30.17,NNW,333,2.0,4.0,49,0.00,,,0.39,,2013-04-21 01:42:00,
2013-04-20 21:52:00,46.0,28.0,30.19,North,10,1.0,5.0,50,0.00,,,0.39,,2013-04-21 01:52:00,
2013-04-20 22:02:00,46.0,28.0,30.19,North,9,2.0,6.0,50,0.00,,,0.39,,2013-04-21 02:02:00,
2013-04-20 22:11:00,46.0,28.0,30.19,North,9,2.0,6.0,50,0.00,,,0.39,,2013-04-21 02:11:00,
2013-04-20 22:22:00,45.0,27.0,30.20,NNE,15,2.0,8.0,50,0.00,,,0.39,,2013-04-21 02:22:00,
2013-04-20 22:32:00,45.0,28.0,30.22,North,5,2.0,6.0,52,0.00,,,0.39,,2013-04-21 02:32:00,
2013-04-20 22:42:00,45.0,28.0,30.22,North,5,2.0,6.0,52,0.00,,,0.39,,2013-04-21 02:42:00,
2013-04-20 22:52:00,44.0,28.0,30.23,NNW,346,3.0,8.0,54,0.00,,,0.39,,2013-04-21 02:52:00,
2013-04-20 23:01:00,43.0,29.0,30.24,NE,40,1.0,5.0,57,0.00,,,0.39,,2013-04-21 03:01:00,
2013-04-20 23:11:00,43.0,29.0,30.24,NE,40,1.0,5.0,57,0.00,,,0.39,,2013-04-21 03:11:00,
2013-04-20 23:22:00,42.0,27.0,30.25,NNW,339,3.0,7.0,55,0.00,,,0.39,,2013-04-21 03:22:00,
2013-04-20 23:33:00,41.0,27.0,30.26,North,355,0.0,6.0,56,0.00,,,0.39,,2013-04-21 03:33:00,
2013-04-20 23:42:00,41.0,27.0,30.26,North,355,0.0,6.0,56,0.00,,,0.39,,2013-04-21 03:42:00,
2013-04-20 23:53:00,40.0,26.0,30.27,North,355,2.0,5.0,56,0.00,,,0.39,,2013-04-21 03:53:00,